createdAt,value
2023-01-31T00:00:24.921Z,100.0
2023-01-31T00:05:56.499Z,100.0
2023-01-31T00:11:28.382Z,100.0
2023-01-31T00:16:59.991Z,100.0
2023-01-31T00:22:31.735Z,100.0
2023-01-31T00:28:03.443Z,100.0
2023-01-31T00:33:35.945Z,100.0
2023-01-31T00:39:06.860Z,100.0
2023-01-31T00:44:38.591Z,99.94
2023-01-31T00:50:10.331Z,99.75
2023-01-31T00:55:42.029Z,99.53
2023-01-31T01:01:20.143Z,98.63
2023-01-31T01:06:52.382Z,99.21
2023-01-31T01:12:23.564Z,98.57
2023-01-31T01:17:55.260Z,97.32
2023-01-31T01:23:27.065Z,97.37
2023-01-31T01:28:58.684Z,96.88
2023-01-31T01:34:30.875Z,96.08
2023-01-31T01:40:02.169Z,96.51
2023-01-31T01:45:34.041Z,96.64
2023-01-31T01:51:05.586Z,95.89
2023-01-31T01:56:37.296Z,96.41
2023-01-31T02:02:13.482Z,95.55
2023-01-31T02:07:46.135Z,94.03
2023-01-31T02:13:16.871Z,95.0
2023-01-31T02:18:48.571Z,98.04
2023-01-31T02:24:20.273Z,97.53
2023-01-31T02:29:52.375Z,98.31
2023-01-31T02:35:24.648Z,97.38
2023-01-31T02:40:55.603Z,95.34
2023-01-31T02:46:27.340Z,95.53
2023-01-31T02:51:59.358Z,95.47
2023-01-31T02:57:30.800Z,97.7
2023-01-31T03:03:09.492Z,98.33
2023-01-31T03:08:40.645Z,98.64
2023-01-31T03:14:12.896Z,99.51
2023-01-31T03:19:44.124Z,99.88
2023-01-31T03:25:15.937Z,99.79
2023-01-31T03:30:47.724Z,99.58
2023-01-31T03:36:19.511Z,99.49
2023-01-31T03:41:51.062Z,98.25
2023-01-31T03:47:23.026Z,96.73
2023-01-31T03:52:54.524Z,97.79
2023-01-31T03:58:26.191Z,97.18
2023-01-31T04:04:02.203Z,96.91
2023-01-31T04:09:33.940Z,97.1
2023-01-31T04:15:05.652Z,96.24
2023-01-31T04:20:37.385Z,95.51
2023-01-31T04:26:09.919Z,93.76
2023-01-31T04:31:41.078Z,93.31
2023-01-31T04:37:12.567Z,95.35
2023-01-31T04:42:44.301Z,94.08
2023-01-31T04:48:15.973Z,94.04
2023-01-31T04:53:47.704Z,94.47
2023-01-31T04:59:19.580Z,95.38
2023-01-31T05:04:55.667Z,95.12
2023-01-31T05:10:27.440Z,95.38
2023-01-31T05:15:59.160Z,96.48
2023-01-31T05:21:31.929Z,95.21
2023-01-31T05:27:02.587Z,94.52
2023-01-31T05:32:34.307Z,94.84
2023-01-31T05:38:06.912Z,95.03
2023-01-31T05:43:37.747Z,95.1
2023-01-31T05:49:09.588Z,94.67
2023-01-31T05:54:41.136Z,96.71
2023-01-31T06:00:12.873Z,95.76
2023-01-31T06:05:49.011Z,96.26
2023-01-31T06:11:20.619Z,98.24
2023-01-31T06:16:52.489Z,98.9
2023-01-31T06:22:24.244Z,100.0
2023-01-31T06:27:56.042Z,100.0
2023-01-31T06:33:47.157Z,99.83
2023-01-31T06:38:59.369Z,99.77
2023-01-31T06:44:31.569Z,99.19
2023-01-31T06:50:02.813Z,99.04
2023-01-31T06:55:34.945Z,99.05
2023-01-31T07:01:06.251Z,99.19
2023-01-31T07:06:42.345Z,98.57
2023-01-31T07:12:14.092Z,98.2
2023-01-31T07:17:45.781Z,98.86
2023-01-31T07:23:17.616Z,98.29
2023-01-31T07:28:49.290Z,98.53
2023-01-31T07:34:21.103Z,98.1
2023-01-31T07:39:52.808Z,98.94
2023-01-31T07:45:24.523Z,98.84
2023-01-31T07:50:56.321Z,98.42
2023-01-31T07:56:27.968Z,98.42
2023-01-31T08:01:59.775Z,98.54
2023-01-31T08:07:39.863Z,98.4
2023-01-31T08:13:11.733Z,98.96
2023-01-31T08:18:43.275Z,98.5
2023-01-31T08:24:15.102Z,97.94
2023-01-31T08:29:46.902Z,97.94
2023-01-31T08:35:19.125Z,97.09
2023-01-31T08:40:50.292Z,96.25
2023-01-31T08:46:22.014Z,96.09
2023-01-31T08:51:53.646Z,96.03
2023-01-31T08:57:25.428Z,94.74
2023-01-31T09:02:57.330Z,94.52
2023-01-31T09:08:35.534Z,93.83
2023-01-31T09:14:07.003Z,93.26
2023-01-31T09:19:39.080Z,93.0
2023-01-31T09:25:10.554Z,93.32
2023-01-31T09:30:42.203Z,92.71
2023-01-31T09:36:13.870Z,91.16
2023-01-31T09:41:46.067Z,90.41
2023-01-31T09:47:17.346Z,89.94
2023-01-31T09:52:49.100Z,91.13
2023-01-31T09:58:21.010Z,89.61
2023-01-31T10:03:52.805Z,88.58
2023-01-31T10:09:31.066Z,89.07
2023-01-31T10:15:02.504Z,89.87
2023-01-31T10:20:34.046Z,88.85
2023-01-31T10:26:05.910Z,88.75
2023-01-31T10:31:37.699Z,88.39
2023-01-31T10:37:09.334Z,88.58
2023-01-31T10:42:41.461Z,88.83
2023-01-31T10:48:13.036Z,88.6
2023-01-31T10:53:45.442Z,89.39
2023-01-31T10:59:16.230Z,89.82
2023-01-31T11:04:47.891Z,89.78
2023-01-31T11:10:24.564Z,88.55
2023-01-31T11:15:56.183Z,89.18
2023-01-31T11:21:27.465Z,89.19
2023-01-31T11:26:59.121Z,88.53
2023-01-31T11:32:30.980Z,88.28
2023-01-31T11:38:02.606Z,86.8
2023-01-31T11:43:34.600Z,86.14
2023-01-31T11:49:06.293Z,86.06
2023-01-31T11:54:38.280Z,84.74
2023-01-31T12:00:09.508Z,85.05
2023-01-31T12:05:41.180Z,84.61
2023-01-31T12:11:19.703Z,84.3
2023-01-31T12:16:51.238Z,84.35
2023-01-31T12:22:23.124Z,83.79
2023-01-31T12:27:54.653Z,84.11
2023-01-31T12:33:26.447Z,84.32
2023-01-31T12:38:58.099Z,83.6
2023-01-31T12:44:29.923Z,83.21
2023-01-31T12:50:01.602Z,84.36
2023-01-31T12:55:33.283Z,83.89
2023-01-31T13:01:05.091Z,84.57
2023-01-31T13:06:36.733Z,84.09
2023-01-31T13:12:14.900Z,84.04
2023-01-31T13:17:46.377Z,84.24
2023-01-31T13:23:18.175Z,84.07
2023-01-31T13:28:49.960Z,83.93
2023-01-31T13:34:21.837Z,84.14
2023-01-31T13:39:53.294Z,84.57
2023-01-31T13:45:25.011Z,84.74
2023-01-31T13:50:56.920Z,84.23
2023-01-31T13:56:28.406Z,84.51
2023-01-31T14:02:00.556Z,84.99
2023-01-31T14:07:32.276Z,83.42
2023-01-31T14:13:08.103Z,84.77
2023-01-31T14:18:39.807Z,84.1
2023-01-31T14:24:11.499Z,84.38
2023-01-31T14:29:43.401Z,84.55
2023-01-31T14:35:14.932Z,83.94
2023-01-31T14:40:46.714Z,83.78
2023-01-31T14:46:18.724Z,84.0
2023-01-31T14:51:50.265Z,84.2
2023-01-31T14:57:22.019Z,84.65
2023-01-31T15:02:53.883Z,84.56
2023-01-31T15:08:25.514Z,84.82
2023-01-31T15:14:02.001Z,84.99
2023-01-31T15:19:33.278Z,85.17
2023-01-31T15:25:06.052Z,85.44
2023-01-31T15:30:37.796Z,85.1
2023-01-31T15:36:09.654Z,85.37
2023-01-31T15:41:41.231Z,85.08
2023-01-31T15:47:12.942Z,85.13
2023-01-31T15:52:44.555Z,84.99
2023-01-31T15:58:16.350Z,85.93
2023-01-31T16:03:48.173Z,88.38
2023-01-31T16:09:19.745Z,88.15
2023-01-31T16:14:55.851Z,88.15
2023-01-31T16:20:28.044Z,88.3
2023-01-31T16:25:59.372Z,88.48
2023-01-31T16:31:31.111Z,89.04
2023-01-31T16:37:02.717Z,89.41
2023-01-31T16:42:34.365Z,89.28
2023-01-31T16:48:06.277Z,89.07
2023-01-31T16:53:38.062Z,89.24
2023-01-31T16:59:10.490Z,89.02
2023-01-31T17:04:42.261Z,88.48
2023-01-31T17:10:13.965Z,88.43
2023-01-31T17:15:50.068Z,88.55
2023-01-31T17:21:21.817Z,88.68
2023-01-31T17:26:54.573Z,89.15
2023-01-31T17:32:25.195Z,89.55
2023-01-31T17:37:57.075Z,89.26
2023-01-31T17:43:28.675Z,89.36
2023-01-31T17:49:00.507Z,88.83
2023-01-31T17:54:32.242Z,88.64
2023-01-31T18:00:03.951Z,88.77
2023-01-31T18:05:39.873Z,88.44
2023-01-31T18:11:07.391Z,88.86
2023-01-31T18:16:43.498Z,88.86
2023-01-31T18:22:15.301Z,89.37
2023-01-31T18:27:47.119Z,89.54
2023-01-31T18:33:18.745Z,89.99
2023-01-31T18:38:50.566Z,89.86
2023-01-31T18:44:22.245Z,90.0
2023-01-31T18:49:54.104Z,89.97
2023-01-31T18:55:25.644Z,90.59
2023-01-31T19:00:57.492Z,90.82
2023-01-31T19:06:29.059Z,90.99
2023-01-31T19:12:00.964Z,90.94
2023-01-31T19:17:38.980Z,91.44
2023-01-31T19:23:10.742Z,91.73
2023-01-31T19:28:42.311Z,91.78
2023-01-31T19:34:14.076Z,92.08
2023-01-31T19:39:45.787Z,92.1
2023-01-31T19:45:23.247Z,92.85
2023-01-31T19:50:49.366Z,93.24
2023-01-31T19:56:21.123Z,93.18
2023-01-31T20:01:53.388Z,93.21
2023-01-31T20:07:24.561Z,93.37
2023-01-31T20:12:56.348Z,93.2
2023-01-31T20:18:32.403Z,92.54
2023-01-31T20:24:04.759Z,92.97
2023-01-31T20:29:35.975Z,93.12
2023-01-31T20:35:07.716Z,92.44
2023-01-31T20:40:39.366Z,91.95
2023-01-31T20:46:11.426Z,93.14
2023-01-31T20:51:43.271Z,93.3
2023-01-31T20:57:14.706Z,93.07
2023-01-31T21:02:46.374Z,94.28
2023-01-31T21:08:18.190Z,94.46
2023-01-31T21:13:49.616Z,96.05
2023-01-31T21:19:25.827Z,96.18
2023-01-31T21:24:57.492Z,96.56
2023-01-31T21:30:29.278Z,96.67
2023-01-31T21:36:01.344Z,96.56
2023-01-31T21:41:32.681Z,97.54
2023-01-31T21:47:04.579Z,98.27
2023-01-31T21:52:36.096Z,98.46
2023-01-31T21:58:07.772Z,98.97
2023-01-31T22:03:40.109Z,98.6
2023-01-31T22:09:11.341Z,98.54
2023-01-31T22:14:42.917Z,99.08
2023-01-31T22:20:19.639Z,99.23
2023-01-31T22:25:50.814Z,99.48
2023-01-31T22:31:22.727Z,98.6
2023-01-31T22:36:54.406Z,99.35
2023-01-31T22:42:26.124Z,99.0
2023-01-31T22:47:57.750Z,99.92
2023-01-31T22:53:29.681Z,100.0
2023-01-31T22:59:01.384Z,100.0
2023-01-31T23:04:33.119Z,100.0
2023-01-31T23:10:04.816Z,100.0
2023-01-31T23:15:36.785Z,100.0
2023-01-31T23:21:12.594Z,100.0
2023-01-31T23:26:44.588Z,100.0
2023-01-31T23:32:16.063Z,100.0
2023-01-31T23:37:48.128Z,100.0
2023-01-31T23:43:19.315Z,100.0
2023-01-31T23:48:51.067Z,100.0
2023-01-31T23:54:23.047Z,100.0
2023-01-31T23:59:54.564Z,100.0
